createdAt,value
2023-03-06T00:01:19.291Z,75.85
2023-03-06T00:03:47.352Z,81.30
2023-03-06T00:06:18.969Z,81.03
2023-03-06T00:08:52.594Z,78.88
2023-03-06T00:11:21.746Z,76.00
2023-03-06T00:13:53.562Z,78.10
2023-03-06T00:16:25.554Z,84.70
2023-03-06T00:18:57.376Z,80.05
2023-03-06T00:21:29.601Z,84.75
2023-03-06T00:24:02.700Z,80.75
2023-03-06T00:26:34.996Z,79.70
2023-03-06T00:29:13.751Z,79.20
2023-03-06T00:31:47.506Z,84.32
2023-03-06T00:34:19.334Z,97.40
2023-03-06T00:36:48.722Z,87.20
2023-03-06T00:39:20.772Z,92.05
2023-03-06T00:42:02.524Z,92.07
2023-03-06T00:44:33.697Z,81.55
2023-03-06T00:47:15.781Z,63.60
2023-03-06T00:52:32.673Z,64.28
2023-03-06T00:55:06.389Z,67.22
2023-03-06T00:57:42.690Z,66.15
2023-03-06T01:00:17.563Z,62.90
2023-03-06T01:02:49.717Z,43.93
2023-03-06T01:05:19.029Z,63.75
2023-03-06T01:07:48.169Z,54.47
2023-03-06T01:10:18.543Z,59.33
2023-03-06T01:12:49.773Z,63.03
2023-03-06T01:15:21.557Z,57.95
2023-03-06T01:17:54.610Z,62.95
2023-03-06T01:20:23.481Z,54.35
2023-03-06T01:22:55.498Z,54.00
2023-03-06T01:25:30.050Z,52.17
2023-03-06T01:28:04.986Z,56.33
2023-03-06T01:30:44.175Z,59.92
2023-03-06T01:33:13.621Z,52.10
2023-03-06T01:35:50.091Z,56.25
2023-03-06T01:38:21.761Z,56.08
2023-03-06T01:40:54.272Z,60.42
2023-03-06T01:43:38.590Z,60.10
2023-03-06T01:46:42.364Z,75.95
2023-03-06T01:49:23.549Z,82.18
2023-03-06T01:52:09.514Z,59.90
2023-03-06T01:55:24.014Z,51.33
2023-03-06T01:58:02.288Z,64.47
2023-03-06T02:00:31.547Z,54.78
2023-03-06T02:03:11.211Z,58.55
2023-03-06T02:05:42.431Z,60.75
2023-03-06T02:08:17.013Z,65.78
2023-03-06T02:11:26.053Z,59.38
2023-03-06T02:13:57.944Z,57.85
2023-03-06T02:16:33.355Z,62.50
2023-03-06T02:19:15.566Z,70.78
2023-03-06T02:21:51.384Z,60.47
2023-03-06T02:24:42.929Z,75.15
2023-03-06T02:27:16.685Z,73.72
2023-03-06T02:29:46.766Z,82.33
2023-03-06T02:32:16.605Z,81.22
2023-03-06T02:35:01.020Z,132.77
2023-03-06T02:37:36.212Z,90.07
2023-03-06T02:40:15.624Z,71.78
2023-03-06T02:42:54.038Z,62.63
2023-03-06T02:45:44.494Z,61.33
2023-03-06T02:48:15.695Z,63.72
2023-03-06T02:50:50.000Z,47.88
2023-03-06T02:53:28.007Z,65.55
2023-03-06T02:55:59.901Z,65.07
2023-03-06T02:58:34.009Z,54.78
2023-03-06T03:01:08.414Z,51.60
2023-03-06T03:03:40.512Z,56.65
2023-03-06T03:06:11.454Z,58.67
2023-03-06T03:08:42.444Z,54.88
2023-03-06T03:11:17.681Z,52.50
2023-03-06T03:13:50.008Z,58.58
2023-03-06T03:16:39.025Z,58.33
2023-03-06T03:19:13.361Z,69.43
2023-03-06T03:21:43.593Z,58.90
2023-03-06T03:24:12.998Z,64.78
2023-03-06T03:29:18.200Z,56.90
2023-03-06T03:32:12.728Z,57.10
2023-03-06T03:34:42.241Z,59.67
2023-03-06T03:37:09.965Z,54.08
2023-03-06T03:39:38.077Z,49.47
2023-03-06T03:42:06.635Z,37.38
2023-03-06T03:44:34.241Z,49.60
2023-03-06T03:47:02.231Z,49.72
2023-03-06T03:49:30.869Z,52.45
2023-03-06T03:51:59.727Z,47.90
2023-03-06T03:54:30.219Z,48.90
2023-03-06T03:56:57.775Z,49.55
2023-03-06T03:59:29.635Z,53.92
2023-03-06T04:02:15.366Z,53.67
2023-03-06T04:04:51.334Z,44.85
2023-03-06T04:07:18.878Z,61.45
2023-03-06T04:09:46.549Z,67.40
2023-03-06T04:12:13.994Z,56.15
2023-03-06T04:14:43.071Z,47.58
2023-03-06T04:17:10.449Z,42.60
2023-03-06T04:19:40.872Z,49.28
2023-03-06T04:22:08.231Z,43.58
2023-03-06T04:24:38.485Z,40.47
2023-03-06T04:27:06.345Z,44.35
2023-03-06T04:29:33.537Z,43.05
2023-03-06T04:32:00.803Z,45.30
2023-03-06T04:34:28.366Z,43.95
2023-03-06T04:36:55.714Z,42.15
2023-03-06T04:39:23.902Z,42.40
2023-03-06T04:41:51.744Z,42.53
2023-03-06T04:44:18.928Z,41.58
2023-03-06T04:46:46.490Z,40.72
2023-03-06T04:49:13.739Z,33.33
2023-03-06T04:51:41.167Z,33.75
2023-03-06T04:54:08.554Z,39.25
2023-03-06T04:56:35.783Z,32.95
2023-03-06T04:59:04.414Z,33.10
2023-03-06T05:01:31.648Z,35.30
2023-03-06T05:03:58.933Z,41.05
2023-03-06T05:06:26.349Z,30.60
2023-03-06T05:08:53.718Z,34.55
2023-03-06T05:11:21.218Z,42.60
2023-03-06T05:13:49.474Z,41.30
2023-03-06T05:16:16.828Z,31.52
2023-03-06T05:18:44.050Z,35.22
2023-03-06T05:21:11.345Z,38.83
2023-03-06T05:23:38.988Z,44.72
2023-03-06T05:26:09.317Z,40.72
2023-03-06T05:28:36.616Z,33.05
2023-03-06T05:31:04.551Z,43.47
2023-03-06T05:33:33.517Z,33.97
2023-03-06T05:36:01.254Z,36.78
2023-03-06T05:38:29.002Z,42.22
2023-03-06T05:40:56.431Z,42.42
2023-03-06T05:43:23.714Z,37.95
2023-03-06T05:45:52.993Z,32.17
2023-03-06T05:48:21.099Z,33.88
2023-03-06T05:50:55.824Z,27.33
2023-03-06T05:53:23.052Z,30.20
2023-03-06T05:56:04.902Z,32.05
2023-03-06T05:58:34.308Z,35.22
2023-03-06T06:01:08.381Z,32.63
2023-03-06T06:03:36.011Z,33.33
2023-03-06T06:06:08.958Z,34.83
2023-03-06T06:08:36.311Z,37.83
2023-03-06T06:11:08.557Z,42.00
2023-03-06T06:13:37.156Z,34.28
2023-03-06T06:16:12.693Z,37.42
2023-03-06T06:18:41.396Z,36.67
2023-03-06T06:21:10.895Z,30.83
2023-03-06T06:23:38.310Z,35.30
2023-03-06T06:26:07.670Z,36.42
2023-03-06T06:28:37.941Z,36.72
2023-03-06T06:31:13.137Z,39.55
2023-03-06T06:33:41.680Z,40.92
2023-03-06T06:36:17.356Z,39.25
2023-03-06T06:38:44.710Z,40.17
2023-03-06T06:41:35.967Z,38.42
2023-03-06T06:43:59.320Z,40.40
2023-03-06T06:47:14.408Z,43.53
2023-03-06T06:49:15.235Z,63.33
2023-03-06T06:51:42.451Z,54.20
2023-03-06T06:54:11.716Z,115.13
2023-03-06T06:56:38.994Z,87.15
2023-03-06T06:59:16.164Z,51.80
2023-03-06T07:01:44.288Z,55.47
2023-03-06T07:04:14.936Z,38.55
2023-03-06T07:06:42.803Z,39.97
2023-03-06T07:09:10.468Z,30.13
2023-03-06T07:11:39.289Z,20.02
2023-03-06T07:14:06.845Z,24.25
2023-03-06T07:16:34.278Z,21.15
2023-03-06T07:19:01.598Z,18.65
2023-03-06T07:21:29.128Z,20.30
2023-03-06T07:23:57.599Z,18.85
2023-03-06T07:26:26.034Z,20.33
2023-03-06T07:28:53.847Z,21.30
2023-03-06T07:31:23.209Z,19.00
2023-03-06T07:33:51.755Z,19.40
2023-03-06T07:36:19.267Z,20.00
2023-03-06T07:38:46.505Z,23.67
2023-03-06T07:41:16.545Z,21.08
2023-03-06T07:43:45.532Z,18.55
2023-03-06T07:46:14.533Z,20.50
2023-03-06T07:48:42.061Z,19.58
2023-03-06T07:51:17.433Z,18.90
2023-03-06T07:53:45.052Z,18.67
2023-03-06T07:56:12.914Z,22.27
2023-03-06T07:58:42.860Z,20.35
2023-03-06T08:01:16.578Z,19.20
2023-03-06T08:03:44.071Z,15.85
2023-03-06T08:06:15.843Z,20.13
2023-03-06T08:08:45.415Z,18.95
2023-03-06T08:11:14.703Z,19.35
2023-03-06T08:13:42.426Z,18.40
2023-03-06T08:16:11.000Z,20.35
2023-03-06T08:18:39.929Z,16.48
2023-03-06T08:21:18.917Z,18.08
2023-03-06T08:23:47.074Z,17.25
2023-03-06T08:26:17.391Z,22.48
2023-03-06T08:28:45.181Z,21.23
2023-03-06T08:31:33.730Z,17.42
2023-03-06T08:34:03.973Z,18.60
2023-03-06T08:36:31.225Z,23.05
2023-03-06T08:38:59.315Z,20.10
2023-03-06T08:41:27.341Z,18.83
2023-03-06T08:43:54.654Z,19.08
2023-03-06T08:46:26.229Z,15.40
2023-03-06T08:48:53.708Z,15.05
2023-03-06T08:51:22.074Z,15.40
2023-03-06T08:53:49.752Z,21.00
2023-03-06T08:56:19.751Z,19.02
2023-03-06T08:58:47.337Z,20.40
2023-03-06T09:01:24.781Z,16.42
2023-03-06T09:03:55.327Z,15.15
2023-03-06T09:06:23.007Z,16.75
2023-03-06T09:08:54.774Z,14.40
2023-03-06T09:11:23.337Z,16.63
2023-03-06T09:13:50.742Z,17.50
2023-03-06T09:16:18.335Z,14.50
2023-03-06T09:18:45.826Z,15.18
2023-03-06T09:21:13.023Z,17.13
2023-03-06T09:23:40.330Z,19.15
2023-03-06T09:26:08.623Z,16.25
2023-03-06T09:28:38.951Z,13.48
2023-03-06T09:31:24.293Z,13.07
2023-03-06T09:33:51.494Z,17.02
2023-03-06T09:36:22.844Z,12.57
2023-03-06T09:38:50.760Z,15.07
2023-03-06T09:41:34.206Z,16.23
2023-03-06T09:44:14.564Z,14.82
2023-03-06T09:46:41.833Z,14.68
2023-03-06T09:49:36.308Z,14.98
2023-03-06T09:52:33.437Z,19.25
2023-03-06T09:55:20.870Z,15.73
2023-03-06T09:58:17.774Z,15.48
2023-03-06T10:01:05.878Z,13.18
2023-03-06T10:03:48.282Z,13.38
2023-03-06T10:06:24.468Z,14.15
2023-03-06T10:09:18.649Z,16.80
2023-03-06T10:11:57.032Z,15.65
2023-03-06T10:14:35.905Z,14.90
2023-03-06T10:17:05.338Z,16.45
2023-03-06T10:19:36.122Z,15.93
2023-03-06T10:22:21.787Z,19.85
2023-03-06T10:25:22.578Z,16.52
2023-03-06T10:28:11.303Z,16.42
2023-03-06T10:31:24.406Z,16.13
2023-03-06T10:34:11.087Z,13.95
2023-03-06T10:36:38.393Z,15.90
2023-03-06T10:39:14.348Z,15.57
2023-03-06T10:41:41.821Z,15.07
2023-03-06T10:44:09.689Z,16.65
2023-03-06T10:46:45.193Z,18.02
2023-03-06T10:49:21.329Z,20.45
2023-03-06T10:52:27.113Z,18.75
2023-03-06T10:55:32.965Z,19.45
2023-03-06T10:58:31.212Z,19.60
2023-03-06T11:01:20.495Z,17.52
2023-03-06T11:03:48.341Z,17.20
2023-03-06T11:06:31.021Z,18.80
2023-03-06T11:09:23.365Z,18.35
2023-03-06T11:11:51.539Z,15.88
2023-03-06T11:14:22.994Z,15.43
2023-03-06T11:16:55.359Z,16.77
2023-03-06T11:19:30.075Z,16.58
2023-03-06T11:22:17.659Z,19.08
2023-03-06T11:24:49.161Z,14.60
2023-03-06T11:27:22.481Z,14.10
2023-03-06T11:29:53.249Z,15.43
2023-03-06T11:32:29.552Z,20.77
2023-03-06T11:35:06.560Z,19.73
2023-03-06T11:37:55.194Z,16.55
2023-03-06T11:40:36.753Z,16.65
2023-03-06T11:43:19.623Z,23.75
2023-03-06T11:46:03.566Z,18.35
2023-03-06T11:48:38.227Z,28.88
2023-03-06T11:51:10.836Z,14.07
2023-03-06T11:53:40.776Z,29.27
2023-03-06T11:56:20.563Z,155.98
2023-03-06T11:58:58.306Z,36.35
2023-03-06T12:01:43.120Z,15.50
2023-03-06T12:07:09.691Z,16.75
2023-03-06T12:09:47.222Z,15.82
2023-03-06T12:12:30.810Z,22.00
2023-03-06T12:15:19.653Z,13.18
2023-03-06T12:18:08.342Z,14.13
2023-03-06T12:20:52.350Z,11.15
2023-03-06T12:23:46.738Z,12.23
2023-03-06T12:26:13.873Z,10.27
2023-03-06T12:29:07.286Z,11.95
2023-03-06T12:32:02.679Z,13.32
2023-03-06T12:34:45.732Z,13.93
2023-03-06T12:37:47.870Z,12.15
2023-03-06T12:40:23.729Z,13.85
2023-03-06T12:43:28.560Z,14.63
2023-03-06T12:46:03.665Z,16.85
2023-03-06T12:48:36.552Z,12.43
2023-03-06T12:51:08.153Z,14.43
2023-03-06T12:53:36.647Z,15.15
2023-03-06T12:56:04.891Z,15.90
2023-03-06T12:58:32.090Z,17.33
2023-03-06T13:01:06.104Z,13.95
2023-03-06T13:03:54.141Z,14.13
2023-03-06T13:06:36.600Z,10.82
2023-03-06T13:11:38.378Z,17.15
2023-03-06T13:14:30.965Z,13.55
2023-03-06T13:17:20.821Z,13.02
2023-03-06T13:19:49.005Z,15.10
2023-03-06T13:22:43.803Z,13.55
2023-03-06T13:25:17.140Z,11.18
2023-03-06T13:27:47.352Z,18.00
2023-03-06T13:30:36.539Z,16.83
2023-03-06T13:33:33.194Z,27.77
2023-03-06T13:36:21.035Z,15.80
2023-03-06T13:39:12.078Z,13.65
2023-03-06T13:41:53.121Z,14.38
2023-03-06T13:44:26.476Z,14.63
2023-03-06T13:47:04.862Z,15.02
2023-03-06T13:49:33.532Z,15.90
2023-03-06T13:52:03.772Z,14.40
2023-03-06T13:55:12.857Z,12.25
2023-03-06T13:58:03.201Z,20.33
2023-03-06T14:01:13.425Z,13.35
2023-03-06T14:04:23.006Z,10.13
2023-03-06T14:07:24.742Z,21.90
2023-03-06T14:10:00.722Z,16.35
2023-03-06T14:12:35.435Z,12.75
2023-03-06T14:15:23.022Z,13.35
2023-03-06T14:18:02.360Z,13.02
2023-03-06T14:20:42.376Z,17.35
2023-03-06T14:23:22.038Z,18.98
2023-03-06T14:26:18.988Z,11.43
2023-03-06T14:28:54.629Z,15.25
2023-03-06T14:31:25.303Z,19.75
2023-03-06T14:34:01.444Z,14.75
2023-03-06T14:36:36.643Z,14.48
2023-03-06T14:39:12.087Z,11.77
2023-03-06T14:41:41.117Z,21.83
2023-03-06T14:44:08.317Z,19.00
2023-03-06T14:46:35.919Z,14.15
2023-03-06T14:49:07.815Z,13.98
2023-03-06T14:51:52.033Z,17.38
2023-03-06T14:54:27.557Z,15.80
2023-03-06T14:57:01.285Z,11.93
2023-03-06T14:59:30.860Z,11.43
2023-03-06T15:02:01.769Z,13.68
2023-03-06T15:04:42.641Z,12.18
2023-03-06T15:07:16.433Z,19.13
2023-03-06T15:09:50.295Z,17.27
2023-03-06T15:12:20.169Z,12.10
2023-03-06T15:15:10.620Z,14.18
2023-03-06T15:17:41.829Z,18.60
2023-03-06T15:20:38.711Z,18.95
2023-03-06T15:23:19.955Z,13.95
2023-03-06T15:26:29.115Z,13.25
2023-03-06T15:29:08.286Z,15.23
2023-03-06T15:31:38.205Z,11.57
2023-03-06T15:34:09.309Z,15.73
2023-03-06T15:36:40.620Z,12.63
2023-03-06T15:39:36.920Z,12.75
2023-03-06T15:42:25.922Z,13.98
2023-03-06T15:44:55.296Z,11.73
2023-03-06T15:47:22.833Z,12.10
2023-03-06T15:49:53.158Z,14.32
2023-03-06T15:52:22.137Z,11.65
2023-03-06T15:54:49.822Z,11.05
2023-03-06T15:57:26.268Z,10.00
2023-03-06T15:59:54.302Z,14.07
2023-03-06T16:02:23.394Z,10.20
2023-03-06T16:04:51.368Z,12.85
2023-03-06T16:07:22.938Z,14.70
2023-03-06T16:09:50.176Z,15.63
2023-03-06T16:12:20.024Z,19.30
2023-03-06T16:14:48.729Z,12.15
2023-03-06T16:17:17.610Z,13.85
2023-03-06T16:19:45.383Z,16.67
2023-03-06T16:22:12.736Z,15.55
2023-03-06T16:24:39.961Z,11.73
2023-03-06T16:27:15.285Z,15.50
2023-03-06T16:29:42.429Z,24.17
2023-03-06T16:32:11.376Z,26.70
2023-03-06T16:34:38.753Z,22.25
2023-03-06T16:37:09.383Z,25.90
2023-03-06T16:39:36.631Z,22.55
2023-03-06T16:42:04.121Z,24.70
2023-03-06T16:44:31.531Z,22.55
2023-03-06T16:47:00.995Z,26.13
2023-03-06T16:49:28.388Z,25.40
2023-03-06T16:51:56.403Z,37.45
2023-03-06T16:54:26.350Z,36.45
2023-03-06T16:56:54.265Z,26.05
2023-03-06T16:59:21.588Z,28.05
2023-03-06T17:01:48.880Z,23.30
2023-03-06T17:04:16.166Z,28.13
2023-03-06T17:06:43.379Z,18.48
2023-03-06T17:09:11.152Z,21.67
2023-03-06T17:11:43.491Z,25.52
2023-03-06T17:14:11.065Z,26.30
2023-03-06T17:16:40.489Z,23.45
2023-03-06T17:19:11.255Z,27.27
2023-03-06T17:21:39.457Z,29.52
2023-03-06T17:24:06.978Z,30.02
2023-03-06T17:26:36.635Z,22.63
2023-03-06T17:29:06.875Z,25.58
2023-03-06T17:31:34.886Z,28.27
2023-03-06T17:34:02.311Z,27.77
2023-03-06T17:36:31.212Z,23.52
2023-03-06T17:39:00.822Z,22.95
2023-03-06T17:41:28.229Z,22.15
2023-03-06T17:43:57.953Z,27.40
2023-03-06T17:46:25.944Z,18.52
2023-03-06T17:48:53.576Z,24.00
2023-03-06T17:51:20.739Z,20.65
2023-03-06T17:53:48.093Z,21.98
2023-03-06T17:56:15.503Z,25.73
2023-03-06T17:58:42.787Z,24.45
2023-03-06T18:01:15.701Z,20.27
2023-03-06T18:03:48.092Z,27.15
2023-03-06T18:06:16.841Z,24.73
2023-03-06T18:08:45.892Z,21.10
2023-03-06T18:11:13.913Z,20.38
2023-03-06T18:13:43.101Z,30.80
2023-03-06T18:16:12.263Z,36.60
2023-03-06T18:18:39.680Z,17.70
2023-03-06T18:21:09.454Z,20.05
2023-03-06T18:23:37.900Z,22.63
2023-03-06T18:26:17.227Z,21.25
2023-03-06T18:28:51.660Z,18.92
2023-03-06T18:31:24.881Z,18.38
2023-03-06T18:33:54.401Z,23.15
2023-03-06T18:36:24.210Z,22.98
2023-03-06T18:38:52.000Z,26.27
2023-03-06T18:41:20.862Z,24.42
2023-03-06T18:43:56.407Z,27.20
2023-03-06T18:46:24.981Z,29.13
2023-03-06T18:48:52.401Z,28.55
2023-03-06T18:51:20.256Z,28.55
2023-03-06T18:53:48.091Z,34.58
2023-03-06T18:56:20.848Z,30.30
2023-03-06T18:58:50.378Z,29.33
2023-03-06T19:01:18.500Z,27.05
2023-03-06T19:03:46.092Z,26.90
2023-03-06T19:06:16.975Z,24.75
2023-03-06T19:08:44.635Z,20.10
2023-03-06T19:11:15.548Z,24.00
2023-03-06T19:13:44.143Z,21.13
2023-03-06T19:16:24.171Z,17.67
2023-03-06T19:18:52.106Z,21.00
2023-03-06T19:21:21.661Z,18.27
2023-03-06T19:23:49.542Z,14.30
2023-03-06T19:26:24.398Z,15.73
2023-03-06T19:29:37.103Z,17.40
2023-03-06T19:33:01.228Z,20.02
2023-03-06T19:35:40.221Z,14.77
2023-03-06T19:38:07.663Z,15.27
2023-03-06T19:40:35.305Z,10.98
2023-03-06T19:43:02.971Z,11.77
2023-03-06T19:45:30.302Z,13.63
2023-03-06T19:48:00.891Z,16.45
2023-03-06T19:50:29.820Z,18.02
2023-03-06T19:52:57.610Z,16.73
2023-03-06T19:55:26.466Z,15.02
2023-03-06T19:57:53.967Z,14.63
2023-03-06T20:00:21.709Z,13.20
2023-03-06T20:02:49.709Z,11.73
2023-03-06T20:05:17.643Z,14.50
2023-03-06T20:07:44.880Z,13.73
2023-03-06T20:10:12.652Z,13.85
2023-03-06T20:12:40.063Z,16.00
2023-03-06T20:15:08.461Z,16.50
2023-03-06T20:17:36.164Z,17.38
2023-03-06T20:20:04.169Z,19.05
2023-03-06T20:22:31.597Z,15.02
2023-03-06T20:24:58.899Z,16.00
2023-03-06T20:27:26.370Z,16.35
2023-03-06T20:29:53.689Z,14.88
2023-03-06T20:32:20.996Z,13.68
2023-03-06T20:34:48.276Z,10.27
2023-03-06T20:37:15.626Z,20.08
2023-03-06T20:39:42.971Z,16.40
2023-03-06T20:42:10.206Z,14.57
2023-03-06T20:44:37.480Z,15.70
2023-03-06T20:47:04.837Z,16.60
2023-03-06T20:49:32.188Z,18.30
2023-03-06T20:51:59.511Z,15.68
2023-03-06T20:54:27.076Z,16.80
2023-03-06T20:56:54.344Z,22.98
2023-03-06T20:59:21.770Z,18.85
2023-03-06T21:01:49.109Z,20.30
2023-03-06T21:04:16.556Z,29.40
2023-03-06T21:06:46.762Z,22.23
2023-03-06T21:09:17.170Z,21.30
2023-03-06T21:11:45.006Z,23.85
2023-03-06T21:14:14.439Z,16.08
2023-03-06T21:16:42.893Z,17.98
2023-03-06T21:19:10.779Z,21.42
2023-03-06T21:21:38.297Z,16.88
2023-03-06T21:24:05.981Z,18.23
2023-03-06T21:26:34.184Z,19.83
2023-03-06T21:29:02.334Z,21.00
2023-03-06T21:31:30.818Z,20.27
2023-03-06T21:33:58.988Z,20.17
2023-03-06T21:36:27.490Z,24.27
2023-03-06T21:38:55.046Z,19.80
2023-03-06T21:41:30.574Z,25.70
2023-03-06T21:44:00.603Z,32.60
2023-03-06T21:46:28.553Z,29.33
2023-03-06T21:48:56.518Z,32.13
2023-03-06T21:51:25.321Z,23.40
2023-03-06T21:53:53.779Z,25.70
2023-03-06T21:56:23.094Z,28.80
2023-03-06T21:58:50.531Z,25.92
2023-03-06T22:01:24.631Z,29.05
2023-03-06T22:03:52.245Z,25.30
2023-03-06T22:06:22.729Z,25.23
2023-03-06T22:08:50.136Z,25.40
2023-03-06T22:11:20.326Z,26.15
2023-03-06T22:13:48.488Z,28.75
2023-03-06T22:16:16.759Z,27.83
2023-03-06T22:18:45.614Z,31.55
2023-03-06T22:21:14.838Z,25.92
2023-03-06T22:23:42.236Z,29.77
2023-03-06T22:26:12.857Z,34.35
2023-03-06T22:28:41.157Z,33.55
2023-03-06T22:31:11.298Z,31.98
2023-03-06T22:33:39.100Z,36.70
2023-03-06T22:36:09.212Z,35.72
2023-03-06T22:38:39.030Z,38.30
2023-03-06T22:41:08.212Z,38.35
2023-03-06T22:43:36.295Z,48.20
2023-03-06T22:46:09.020Z,40.38
2023-03-06T22:48:36.576Z,46.85
2023-03-06T22:51:06.489Z,52.95
2023-03-06T22:53:34.313Z,37.83
2023-03-06T22:56:03.404Z,56.53
2023-03-06T22:58:35.725Z,47.70
2023-03-06T23:01:11.230Z,38.28
2023-03-06T23:03:41.350Z,44.47
2023-03-06T23:06:11.079Z,50.35
2023-03-06T23:08:39.163Z,46.90
2023-03-06T23:11:12.064Z,38.70
2023-03-06T23:13:58.001Z,33.75
2023-03-06T23:16:44.002Z,35.67
2023-03-06T23:19:30.093Z,37.40
2023-03-06T23:22:15.532Z,35.33
2023-03-06T23:25:01.428Z,36.53
2023-03-06T23:27:29.521Z,36.15
2023-03-06T23:29:58.913Z,29.23
2023-03-06T23:32:26.588Z,35.58
2023-03-06T23:34:53.926Z,32.70
2023-03-06T23:37:21.248Z,39.08
2023-03-06T23:39:48.535Z,31.58
2023-03-06T23:42:15.699Z,31.00
2023-03-06T23:44:43.117Z,34.50
2023-03-06T23:47:10.320Z,33.60
2023-03-06T23:49:37.814Z,31.90
2023-03-06T23:52:05.192Z,40.55
2023-03-06T23:54:34.437Z,36.80
2023-03-06T23:57:01.672Z,33.90
2023-03-06T23:59:29.000Z,29.77
